createdAt,value
2018-02-02T00:01:06.696Z,2.80
2018-02-02T00:03:32.640Z,3.60
2018-02-02T00:05:58.616Z,3.50
2018-02-02T00:08:25.324Z,3.03
2018-02-02T00:10:51.322Z,3.13
2018-02-02T00:13:17.344Z,3.17
2018-02-02T00:15:44.010Z,3.30
2018-02-02T00:18:09.971Z,3.10
2018-02-02T00:20:35.914Z,2.97
2018-02-02T00:23:01.883Z,3.33
2018-02-02T00:25:27.848Z,3.23
2018-02-02T00:27:53.868Z,3.10
2018-02-02T00:30:20.608Z,2.90
2018-02-02T00:32:47.287Z,3.10
2018-02-02T00:35:13.256Z,3.23
2018-02-02T00:37:39.968Z,3.53
2018-02-02T00:40:05.959Z,3.03
2018-02-02T00:42:31.899Z,3.23
2018-02-02T00:44:57.836Z,3.57
2018-02-02T00:47:23.807Z,3.73
2018-02-02T00:49:50.564Z,3.73
2018-02-02T00:52:16.540Z,3.63
2018-02-02T00:54:42.524Z,2.70
2018-02-02T00:57:09.203Z,3.37
2018-02-02T00:59:35.143Z,3.00
2018-02-02T01:02:01.111Z,2.93
2018-02-02T01:04:27.110Z,2.40
2018-02-02T01:06:53.047Z,2.70
2018-02-02T01:09:18.984Z,3.00
2018-02-02T01:11:44.982Z,3.00
2018-02-02T01:14:11.699Z,3.10
2018-02-02T01:16:37.672Z,2.77
2018-02-02T01:19:04.353Z,3.00
2018-02-02T01:21:30.323Z,2.50
2018-02-02T01:23:56.301Z,2.97
2018-02-02T01:26:23.016Z,2.50
2018-02-02T01:28:48.955Z,3.40
2018-02-02T01:31:14.920Z,2.60
2018-02-02T01:33:41.634Z,2.60
2018-02-02T01:36:07.613Z,2.60
2018-02-02T01:38:34.304Z,3.00
2018-02-02T01:41:00.281Z,3.00
2018-02-02T01:43:26.258Z,3.00
2018-02-02T01:45:52.196Z,3.00
2018-02-02T01:48:20.132Z,3.63
2018-02-02T01:50:46.077Z,3.93
2018-02-02T01:53:12.103Z,3.60
2018-02-02T01:55:38.089Z,3.20
2018-02-02T01:58:04.029Z,3.23
2018-02-02T02:00:29.968Z,3.50
2018-02-02T02:02:55.943Z,2.67
2018-02-02T02:05:21.877Z,2.80
2018-02-02T02:07:47.864Z,2.80
2018-02-02T02:10:14.573Z,3.10
2018-02-02T02:12:40.630Z,3.53
2018-02-02T02:15:06.577Z,3.50
2018-02-02T02:17:32.551Z,3.10
2018-02-02T02:19:58.497Z,2.60
2018-02-02T02:22:24.467Z,2.50
2018-02-02T02:24:50.426Z,2.60
2018-02-02T02:27:16.391Z,2.43
2018-02-02T02:29:42.404Z,2.90
2018-02-02T02:32:08.364Z,3.50
2018-02-02T02:34:34.336Z,3.10
2018-02-02T02:37:01.076Z,2.60
2018-02-02T02:39:27.044Z,2.60
2018-02-02T02:41:52.977Z,2.77
2018-02-02T02:44:18.969Z,1.93
2018-02-02T02:46:44.944Z,2.50
2018-02-02T02:49:11.680Z,2.50
2018-02-02T02:51:38.392Z,2.30
2018-02-02T02:54:04.357Z,2.33
2018-02-02T02:56:30.332Z,2.70
2018-02-02T02:58:56.312Z,2.00
2018-02-02T03:01:22.283Z,3.43
2018-02-02T03:03:48.992Z,2.27
2018-02-02T03:06:14.935Z,2.00
2018-02-02T03:08:40.929Z,2.80
2018-02-02T03:11:06.910Z,2.33
2018-02-02T03:13:32.860Z,2.30
2018-02-02T03:15:58.832Z,2.20
2018-02-02T03:18:24.782Z,1.90
2018-02-02T03:20:50.756Z,3.40
2018-02-02T03:23:16.696Z,2.07
2018-02-02T03:25:42.697Z,2.70
2018-02-02T03:28:08.642Z,3.43
2018-02-02T03:30:34.636Z,2.43
2018-02-02T03:33:00.589Z,2.77
2018-02-02T03:35:26.543Z,2.10
2018-02-02T03:37:52.521Z,2.67
2018-02-02T03:40:18.482Z,2.47
2018-02-02T03:42:44.484Z,2.50
2018-02-02T03:45:10.479Z,2.40
2018-02-02T03:47:36.468Z,2.80
2018-02-02T03:50:03.193Z,2.50
2018-02-02T03:52:29.136Z,2.53
2018-02-02T03:54:55.091Z,2.67
2018-02-02T03:57:21.783Z,2.80
2018-02-02T03:59:47.756Z,2.70
2018-02-02T04:02:13.750Z,2.83
2018-02-02T04:04:39.943Z,2.50
2018-02-02T04:07:05.925Z,2.37
2018-02-02T04:09:31.863Z,2.70
2018-02-02T04:11:58.551Z,2.00
2018-02-02T04:14:24.544Z,2.90
2018-02-02T04:16:50.484Z,3.00
2018-02-02T04:19:16.451Z,2.50
2018-02-02T04:21:42.424Z,2.40
2018-02-02T04:24:09.180Z,3.17
2018-02-02T04:26:35.889Z,3.10
2018-02-02T04:29:01.887Z,3.17
2018-02-02T04:31:27.873Z,3.33
2018-02-02T04:33:54.569Z,3.03
2018-02-02T04:36:21.381Z,3.40
2018-02-02T04:38:47.328Z,3.10
2018-02-02T04:41:13.401Z,4.40
2018-02-02T04:43:39.343Z,3.27
2018-02-02T04:46:05.291Z,3.60
2018-02-02T04:48:31.272Z,2.50
2018-02-02T04:50:57.215Z,2.77
2018-02-02T04:53:23.985Z,3.73
2018-02-02T04:55:50.683Z,2.90
2018-02-02T04:58:16.660Z,3.03
2018-02-02T05:00:42.633Z,2.90
2018-02-02T05:03:08.636Z,2.80
2018-02-02T05:05:35.348Z,2.40
2018-02-02T05:08:02.029Z,3.23
2018-02-02T05:10:28.037Z,3.60
2018-02-02T05:12:53.984Z,3.30
2018-02-02T05:15:19.961Z,3.07
2018-02-02T05:17:46.700Z,3.43
2018-02-02T05:20:13.418Z,4.10
2018-02-02T05:22:39.456Z,2.60
2018-02-02T05:25:05.408Z,3.70
2018-02-02T05:27:31.358Z,3.17
2018-02-02T05:29:57.354Z,3.67
2018-02-02T05:32:23.369Z,3.17
2018-02-02T05:34:49.344Z,3.23
2018-02-02T05:37:15.301Z,2.80
2018-02-02T05:39:41.309Z,3.77
2018-02-02T05:42:07.255Z,3.37
2018-02-02T05:44:33.191Z,3.50
2018-02-02T05:46:59.147Z,3.27
2018-02-02T05:49:25.919Z,3.90
2018-02-02T05:51:52.604Z,2.97
2018-02-02T05:54:18.544Z,4.30
2018-02-02T05:56:44.557Z,3.90
2018-02-02T05:59:10.514Z,3.50
2018-02-02T06:01:36.464Z,4.03
2018-02-02T06:04:02.436Z,4.60
2018-02-02T06:06:29.153Z,4.30
2018-02-02T06:08:55.143Z,4.13
2018-02-02T06:11:21.824Z,5.27
2018-02-02T06:13:47.764Z,5.50
2018-02-02T06:16:13.763Z,5.57
2018-02-02T06:18:39.720Z,7.00
2018-02-02T06:21:05.700Z,9.27
2018-02-02T06:23:31.650Z,8.50
2018-02-02T06:25:57.648Z,7.37
2018-02-02T06:28:23.641Z,6.10
2018-02-02T06:30:50.366Z,5.33
2018-02-02T06:33:16.343Z,5.37
2018-02-02T06:35:42.369Z,4.97
2018-02-02T06:38:09.149Z,4.97
2018-02-02T06:40:35.149Z,5.67
2018-02-02T06:43:02.044Z,6.90
2018-02-02T06:45:28.046Z,8.23
2018-02-02T06:47:54.732Z,9.50
2018-02-02T06:50:20.709Z,13.03
2018-02-02T06:52:46.715Z,11.17
2018-02-02T06:55:12.700Z,10.43
2018-02-02T06:57:39.424Z,13.70
2018-02-02T07:00:05.376Z,11.70
2018-02-02T07:02:31.361Z,20.33
2018-02-02T07:04:57.371Z,15.67
2018-02-02T07:07:24.103Z,11.53
2018-02-02T07:09:50.076Z,10.30
2018-02-02T07:12:16.067Z,11.73
2018-02-02T07:14:42.028Z,13.50
2018-02-02T07:17:08.736Z,15.57
2018-02-02T07:19:34.717Z,15.03
2018-02-02T07:22:01.412Z,13.33
2018-02-02T07:24:27.380Z,13.07
2018-02-02T07:26:53.335Z,12.00
2018-02-02T07:29:20.061Z,10.90
2018-02-02T07:31:46.040Z,10.07
2018-02-02T07:34:12.770Z,9.40
2018-02-02T07:36:39.466Z,9.67
2018-02-02T07:39:05.441Z,10.00
2018-02-02T07:41:31.414Z,8.10
2018-02-02T07:43:58.125Z,10.37
2018-02-02T07:46:24.104Z,11.00
2018-02-02T07:48:50.853Z,8.03
2018-02-02T07:51:17.539Z,8.87
2018-02-02T07:53:43.527Z,8.80
2018-02-02T07:56:10.267Z,8.87
2018-02-02T07:58:36.248Z,8.90
2018-02-02T08:01:08.432Z,9.60
2018-02-02T08:03:34.440Z,7.97
2018-02-02T08:06:01.152Z,7.13
2018-02-02T08:08:27.181Z,7.67
2018-02-02T08:10:53.139Z,8.03
2018-02-02T08:13:19.072Z,8.80
2018-02-02T08:15:45.060Z,7.40
2018-02-02T08:18:11.059Z,9.17
2018-02-02T08:20:37.806Z,8.73
2018-02-02T08:23:03.737Z,9.60
2018-02-02T08:25:29.692Z,10.03
2018-02-02T08:27:55.675Z,9.20
2018-02-02T08:30:21.653Z,8.80
2018-02-02T08:32:47.620Z,8.17
2018-02-02T08:35:13.640Z,9.17
2018-02-02T08:37:39.627Z,8.90
2018-02-02T08:40:05.612Z,9.17
2018-02-02T08:42:31.572Z,9.87
2018-02-02T08:44:57.543Z,8.83
2018-02-02T08:47:24.292Z,7.97
2018-02-02T08:49:50.296Z,5.70
2018-02-02T08:52:16.320Z,5.03
2018-02-02T08:54:42.300Z,4.60
2018-02-02T08:57:08.305Z,4.30
2018-02-02T08:59:34.285Z,4.30
2018-02-02T09:02:05.203Z,4.00
2018-02-02T09:04:31.195Z,4.10
2018-02-02T09:06:57.168Z,4.87
2018-02-02T09:09:23.179Z,3.77
2018-02-02T09:11:49.181Z,5.50
2018-02-02T09:14:15.903Z,3.30
2018-02-02T09:16:41.923Z,4.17
2018-02-02T09:19:07.901Z,3.50
2018-02-02T09:21:33.883Z,3.00
2018-02-02T09:23:59.911Z,3.23
2018-02-02T09:26:25.893Z,2.80
2018-02-02T09:28:51.884Z,3.03
2018-02-02T09:31:17.852Z,3.10
2018-02-02T09:33:43.845Z,3.10
2018-02-02T09:36:09.856Z,3.30
2018-02-02T09:38:35.840Z,3.47
2018-02-02T09:41:01.814Z,3.20
2018-02-02T09:43:27.802Z,2.80
2018-02-02T09:45:53.803Z,3.20
2018-02-02T09:48:19.832Z,3.27
2018-02-02T09:50:45.797Z,2.93
2018-02-02T09:53:11.905Z,3.73
2018-02-02T09:55:37.902Z,3.10
2018-02-02T09:58:03.893Z,2.50
2018-02-02T10:00:29.921Z,2.97
2018-02-02T10:02:55.910Z,3.10
2018-02-02T10:05:21.898Z,2.83
2018-02-02T10:07:48.626Z,2.80
2018-02-02T10:10:14.588Z,4.27
2018-02-02T10:12:41.324Z,3.07
2018-02-02T10:15:07.307Z,2.50
2018-02-02T10:17:33.327Z,3.77
2018-02-02T10:19:59.308Z,3.47
2018-02-02T10:22:25.288Z,3.00
2018-02-02T10:24:52.071Z,2.90
2018-02-02T10:27:18.072Z,2.97
2018-02-02T10:29:44.072Z,3.00
2018-02-02T10:32:10.068Z,3.67
2018-02-02T10:34:36.072Z,2.60
2018-02-02T10:37:02.805Z,3.20
2018-02-02T10:39:28.779Z,2.67
2018-02-02T10:41:55.520Z,2.10
2018-02-02T10:44:21.500Z,2.30
2018-02-02T10:46:47.524Z,2.20
2018-02-02T10:49:13.541Z,2.10
2018-02-02T10:51:39.521Z,2.20
2018-02-02T10:54:05.514Z,3.07
2018-02-02T10:56:32.285Z,4.23
2018-02-02T10:58:58.269Z,3.43
2018-02-02T11:01:30.472Z,2.67
2018-02-02T11:03:57.268Z,2.70
2018-02-02T11:06:23.325Z,4.33
2018-02-02T11:08:49.317Z,2.20
2018-02-02T11:11:16.044Z,2.17
2018-02-02T11:13:42.102Z,2.70
2018-02-02T11:16:08.057Z,2.87
2018-02-02T11:18:34.796Z,1.97
2018-02-02T11:21:01.492Z,2.00
2018-02-02T11:23:27.536Z,1.80
2018-02-02T11:25:53.463Z,2.20
2018-02-02T11:28:19.473Z,3.20
2018-02-02T11:30:45.497Z,2.57
2018-02-02T11:33:12.240Z,1.90
2018-02-02T11:35:38.255Z,2.13
2018-02-02T11:38:04.252Z,1.80
2018-02-02T11:40:30.257Z,2.70
2018-02-02T11:42:56.955Z,1.90
2018-02-02T11:45:22.973Z,2.20
2018-02-02T11:47:48.994Z,1.80
2018-02-02T11:50:15.699Z,1.67
2018-02-02T11:52:41.681Z,1.50
2018-02-02T11:55:08.498Z,2.00
2018-02-02T11:57:34.467Z,2.00
2018-02-02T12:00:01.233Z,1.93
2018-02-02T12:02:27.207Z,2.33
2018-02-02T12:04:53.203Z,2.33
2018-02-02T12:07:19.931Z,1.93
2018-02-02T12:09:45.888Z,2.00
2018-02-02T12:12:11.907Z,1.60
2018-02-02T12:14:37.910Z,2.07
2018-02-02T12:17:03.963Z,2.00
2018-02-02T12:19:29.920Z,2.00
2018-02-02T12:21:56.907Z,1.77
2018-02-02T12:24:25.929Z,2.00
2018-02-02T12:27:01.044Z,1.90
2018-02-02T12:29:33.776Z,2.33
2018-02-02T12:32:05.904Z,2.00
2018-02-02T12:37:30.929Z,2.80
2018-02-02T12:39:56.932Z,2.33
2018-02-02T12:42:22.928Z,2.80
2018-02-02T12:44:48.947Z,1.53
2018-02-02T12:47:15.619Z,1.73
2018-02-02T12:49:54.133Z,1.93
2018-02-02T12:52:20.140Z,1.60
2018-02-02T12:54:46.869Z,1.97
2018-02-02T12:57:12.893Z,2.27
2018-02-02T12:59:38.867Z,2.50
2018-02-02T13:02:04.866Z,2.17
2018-02-02T13:04:31.629Z,1.77
2018-02-02T13:06:57.608Z,2.43
2018-02-02T13:09:23.656Z,2.10
2018-02-02T13:11:49.652Z,2.03
2018-02-02T13:14:15.624Z,1.50
2018-02-02T13:16:41.602Z,2.00
2018-02-02T13:19:08.337Z,1.80
2018-02-02T13:21:34.345Z,2.10
2018-02-02T13:24:00.345Z,1.93
2018-02-02T13:26:26.351Z,1.80
2018-02-02T13:28:52.381Z,2.27
2018-02-02T13:31:18.395Z,2.63
2018-02-02T13:33:44.437Z,2.70
2018-02-02T13:36:10.453Z,2.17
2018-02-02T13:38:36.438Z,2.00
2018-02-02T13:41:02.488Z,2.50
2018-02-02T13:43:29.181Z,2.30
2018-02-02T13:45:55.216Z,1.93
2018-02-02T13:48:21.226Z,2.43
2018-02-02T13:50:47.288Z,2.00
2018-02-02T13:53:13.302Z,2.00
2018-02-02T13:55:39.256Z,2.03
2018-02-02T13:58:05.268Z,1.93
2018-02-02T14:00:31.252Z,1.87
2018-02-02T14:02:57.224Z,2.20
2018-02-02T14:05:23.973Z,2.00
2018-02-02T14:07:50.003Z,1.77
2018-02-02T14:10:15.971Z,1.80
2018-02-02T14:12:42.021Z,2.30
2018-02-02T14:15:07.994Z,2.70
2018-02-02T14:17:34.008Z,2.47
2018-02-02T14:20:00.059Z,2.40
2018-02-02T14:22:26.098Z,2.17
2018-02-02T14:24:52.110Z,2.23
2018-02-02T14:27:18.115Z,3.13
2018-02-02T14:29:44.848Z,2.50
2018-02-02T14:32:11.632Z,2.77
2018-02-02T14:34:37.667Z,2.60
2018-02-02T14:37:04.472Z,3.00
2018-02-02T14:39:30.479Z,2.37
2018-02-02T14:41:56.432Z,2.60
2018-02-02T14:44:22.440Z,3.00
2018-02-02T14:46:49.157Z,6.53
2018-02-02T14:49:15.173Z,2.73
2018-02-02T14:51:41.151Z,2.43
2018-02-02T14:54:07.893Z,2.40
2018-02-02T14:56:33.907Z,2.60
2018-02-02T14:58:59.873Z,4.00
2018-02-02T15:01:26.595Z,4.57
2018-02-02T15:03:52.602Z,2.80
2018-02-02T15:06:18.599Z,2.27
2018-02-02T15:08:44.656Z,2.00
2018-02-02T15:11:11.357Z,2.57
2018-02-02T15:13:37.407Z,2.37
2018-02-02T15:16:03.392Z,2.43
2018-02-02T15:18:29.421Z,3.00
2018-02-02T15:20:55.425Z,2.70
2018-02-02T15:23:23.400Z,2.70
2018-02-02T15:25:49.363Z,3.13
2018-02-02T15:28:16.152Z,3.20
2018-02-02T15:30:42.152Z,3.13
2018-02-02T15:33:08.864Z,3.10
2018-02-02T15:35:34.947Z,2.90
2018-02-02T15:38:00.912Z,4.53
2018-02-02T15:40:26.929Z,3.30
2018-02-02T15:42:52.883Z,4.47
2018-02-02T15:45:18.900Z,7.20
2018-02-02T15:47:44.936Z,6.30
2018-02-02T15:50:11.640Z,2.97
2018-02-02T15:52:37.681Z,7.90
2018-02-02T15:55:04.558Z,4.20
2018-02-02T15:57:30.600Z,4.47
2018-02-02T15:59:56.572Z,2.83
2018-02-02T16:02:22.623Z,3.70
2018-02-02T16:04:48.751Z,3.83
2018-02-02T16:07:14.758Z,3.73
2018-02-02T16:09:40.777Z,5.97
2018-02-02T16:12:06.834Z,3.93
2018-02-02T16:14:33.639Z,3.93
2018-02-02T16:16:59.643Z,5.70
2018-02-02T16:19:25.681Z,4.43
2018-02-02T16:21:51.693Z,4.40
2018-02-02T16:24:17.641Z,6.10
2018-02-02T16:26:44.375Z,4.10
2018-02-02T16:29:10.381Z,4.40
2018-02-02T16:31:36.376Z,4.77
2018-02-02T16:34:02.337Z,14.77
2018-02-02T16:36:28.361Z,6.63
2018-02-02T16:38:54.329Z,3.70
2018-02-02T16:41:20.340Z,4.23
2018-02-02T16:43:46.307Z,4.13
2018-02-02T16:46:12.313Z,3.50
2018-02-02T16:48:38.317Z,6.40
2018-02-02T16:51:05.069Z,4.17
2018-02-02T16:53:31.771Z,5.03
2018-02-02T16:55:57.751Z,4.00
2018-02-02T16:58:24.511Z,4.07
2018-02-02T17:00:51.254Z,4.20
2018-02-02T17:03:17.228Z,3.80
2018-02-02T17:05:43.229Z,4.37
2018-02-02T17:08:09.931Z,4.00
2018-02-02T17:10:35.945Z,4.30
2018-02-02T17:13:02.025Z,4.77
2018-02-02T17:15:27.993Z,4.53
2018-02-02T17:17:54.736Z,3.67
2018-02-02T17:20:20.690Z,3.70
2018-02-02T17:22:46.748Z,4.33
2018-02-02T17:25:12.697Z,5.80
2018-02-02T17:27:38.780Z,2.93
2018-02-02T17:30:04.773Z,3.80
2018-02-02T17:32:30.796Z,3.37
2018-02-02T17:34:56.801Z,3.03
2018-02-02T17:37:23.592Z,3.30
2018-02-02T17:39:49.601Z,3.70
2018-02-02T17:42:16.337Z,3.40
2018-02-02T17:44:45.684Z,3.60
2018-02-02T17:47:12.398Z,4.43
2018-02-02T17:49:38.429Z,3.50
2018-02-02T17:52:04.475Z,3.47
2018-02-02T17:54:30.459Z,3.00
2018-02-02T17:56:56.473Z,3.37
2018-02-02T17:59:23.227Z,3.60
2018-02-02T18:01:54.856Z,3.30
2018-02-02T18:04:20.889Z,3.30
2018-02-02T18:06:46.898Z,3.33
2018-02-02T18:09:12.923Z,3.63
2018-02-02T18:11:39.017Z,3.50
2018-02-02T18:14:05.053Z,3.43
2018-02-02T18:16:31.030Z,2.70
2018-02-02T18:18:57.032Z,3.10
2018-02-02T18:21:23.004Z,6.10
2018-02-02T18:23:49.732Z,5.37
2018-02-02T18:26:15.784Z,3.70
2018-02-02T18:28:41.776Z,5.40
2018-02-02T18:31:07.845Z,4.20
2018-02-02T18:33:33.862Z,4.83
2018-02-02T18:35:59.866Z,4.90
2018-02-02T18:38:25.835Z,4.00
2018-02-02T18:40:51.838Z,4.40
2018-02-02T18:43:17.856Z,3.90
2018-02-02T18:45:43.811Z,4.53
2018-02-02T18:48:09.818Z,4.70
2018-02-02T18:50:36.625Z,4.43
2018-02-02T18:53:02.636Z,4.50
2018-02-02T18:55:28.641Z,3.57
2018-02-02T18:57:55.373Z,3.30
2018-02-02T19:00:21.384Z,3.80
2018-02-02T19:02:47.364Z,3.80
2018-02-02T19:05:14.060Z,3.67
2018-02-02T19:07:40.064Z,4.80
2018-02-02T19:10:06.907Z,3.40
2018-02-02T19:12:32.889Z,4.30
2018-02-02T19:14:58.875Z,3.50
2018-02-02T19:17:24.875Z,3.83
2018-02-02T19:19:50.909Z,3.27
2018-02-02T19:22:16.944Z,3.70
2018-02-02T19:24:43.019Z,2.90
2018-02-02T19:27:08.995Z,3.03
2018-02-02T19:29:35.068Z,3.10
2018-02-02T19:32:01.081Z,3.20
2018-02-02T19:34:27.075Z,3.13
2018-02-02T19:36:53.125Z,3.03
2018-02-02T19:39:19.837Z,3.60
2018-02-02T19:41:45.945Z,3.93
2018-02-02T19:44:11.983Z,3.37
2018-02-02T19:46:37.984Z,4.50
2018-02-02T19:49:04.079Z,4.00
2018-02-02T19:51:30.100Z,4.20
2018-02-02T19:53:56.138Z,3.70
2018-02-02T19:56:22.212Z,3.70
2018-02-02T19:58:48.189Z,3.47
2018-02-02T20:01:14.952Z,3.73
2018-02-02T20:03:40.949Z,4.10
2018-02-02T20:06:07.062Z,4.03
2018-02-02T20:08:33.268Z,3.60
2018-02-02T20:10:59.364Z,4.43
2018-02-02T20:13:26.182Z,4.50
2018-02-02T20:15:52.396Z,3.70
2018-02-02T20:18:18.468Z,3.97
2018-02-02T20:20:44.446Z,3.70
2018-02-02T20:23:10.446Z,4.17
2018-02-02T20:25:36.498Z,3.70
2018-02-02T20:28:03.400Z,4.30
2018-02-02T20:30:29.417Z,4.80
2018-02-02T20:32:56.182Z,4.10
2018-02-02T20:35:22.141Z,3.60
2018-02-02T20:37:48.144Z,3.33
2018-02-02T20:40:14.840Z,3.93
2018-02-02T20:42:40.895Z,4.30
2018-02-02T20:45:06.913Z,3.43
2018-02-02T20:47:32.852Z,3.70
2018-02-02T20:49:58.893Z,3.70
2018-02-02T20:52:24.928Z,3.87
2018-02-02T20:54:50.922Z,3.60
2018-02-02T20:57:16.928Z,3.93
2018-02-02T20:59:42.950Z,3.90
2018-02-02T21:02:08.924Z,4.20
2018-02-02T21:04:35.681Z,3.77
2018-02-02T21:07:01.644Z,3.80
2018-02-02T21:09:27.700Z,4.30
2018-02-02T21:11:53.648Z,3.30
2018-02-02T21:14:19.644Z,3.50
2018-02-02T21:16:45.676Z,4.03
2018-02-02T21:19:11.688Z,3.60
2018-02-02T21:21:38.425Z,3.70
2018-02-02T21:24:04.442Z,4.10
2018-02-02T21:26:30.420Z,3.80
2018-02-02T21:28:57.187Z,4.30
2018-02-02T21:31:23.246Z,4.27
2018-02-02T21:33:49.266Z,4.13
2018-02-02T21:36:15.248Z,4.50
2018-02-02T21:38:41.248Z,4.00
2018-02-02T21:41:07.194Z,4.70
2018-02-02T21:43:33.224Z,4.60
2018-02-02T21:45:59.172Z,4.60
2018-02-02T21:48:25.154Z,4.60
2018-02-02T21:50:51.914Z,4.90
2018-02-02T21:53:18.602Z,4.50
2018-02-02T21:55:44.597Z,4.10
2018-02-02T21:58:11.341Z,4.30
2018-02-02T22:00:37.465Z,3.90
2018-02-02T22:03:03.497Z,4.73
2018-02-02T22:05:29.479Z,4.70
2018-02-02T22:07:55.528Z,4.93
2018-02-02T22:10:21.529Z,4.40
2018-02-02T22:12:47.472Z,4.40
2018-02-02T22:15:14.268Z,5.43
2018-02-02T22:17:40.296Z,5.23
2018-02-02T22:20:06.311Z,4.43
2018-02-02T22:22:32.267Z,4.60
2018-02-02T22:24:58.234Z,5.30
2018-02-02T22:27:24.223Z,5.20
2018-02-02T22:29:50.283Z,4.80
2018-02-02T22:32:16.308Z,4.70
2018-02-02T22:34:42.292Z,4.80
2018-02-02T22:37:08.306Z,4.50
2018-02-02T22:39:34.435Z,6.37
2018-02-02T22:42:00.448Z,5.43
2018-02-02T22:44:26.469Z,5.10
2018-02-02T22:46:53.184Z,4.50
2018-02-02T22:49:19.184Z,4.23
2018-02-02T22:51:45.134Z,5.10
2018-02-02T22:54:11.128Z,5.03
2018-02-02T22:56:37.874Z,4.77
2018-02-02T22:59:03.926Z,4.80
2018-02-02T23:01:30.619Z,4.97
2018-02-02T23:03:56.629Z,5.27
2018-02-02T23:06:22.560Z,4.27
2018-02-02T23:08:48.526Z,5.70
2018-02-02T23:11:14.496Z,4.90
2018-02-02T23:13:40.476Z,5.40
2018-02-02T23:16:06.527Z,5.43
2018-02-02T23:18:32.471Z,6.37
2018-02-02T23:20:58.468Z,5.50
2018-02-02T23:23:25.148Z,5.87
2018-02-02T23:25:51.105Z,5.30
2018-02-02T23:28:17.819Z,5.10
2018-02-02T23:30:43.795Z,4.80
2018-02-02T23:33:09.740Z,5.37
2018-02-02T23:35:35.770Z,5.53
2018-02-02T23:38:01.757Z,5.93
2018-02-02T23:40:27.736Z,5.50
2018-02-02T23:42:53.688Z,5.53
2018-02-02T23:45:19.679Z,5.30
2018-02-02T23:47:45.623Z,6.00
2018-02-02T23:50:11.572Z,5.97
2018-02-02T23:52:38.359Z,6.10
2018-02-02T23:55:04.327Z,5.77
2018-02-02T23:57:30.308Z,6.17
2018-02-02T23:59:56.247Z,4.97
